Time;durP1;ratioP1;P1;durP2;ratioP2;P2;SDS_P1;SDS_P2;PMS_P1;PMS_P2;Temp;Humidity;BMP_temperature;BMP_pressure;BME280_temperature;BME280_humidity;BME280_pressure;Samples;Min_cycle;Max_cycle;Signal;HPM_P1;HPM_P2
2023/07/06 00:10:11;;;;;;;10.63;1.85;;;;;;;23.67;55.12;100114.81;10479232;28;20480;-67
2023/07/06 00:20:33;;;;;;;13.50;2.30;;;;;;;23.20;57.38;100132.56;10499329;28;20036;-67
2023/07/06 00:31:02;;;;;;;8.52;2.08;;;;;;;22.98;59.64;100135.34;10498056;28;20454;-67
2023/07/06 00:41:23;;;;;;;7.88;2.10;;;;;;;22.67;60.51;100131.44;10498376;28;20047;-67
2023/07/06 00:51:48;;;;;;;14.68;3.17;;;;;;;22.10;61.91;100075.75;10497990;28;20051;-67
2023/07/06 01:24:10;;;;;;;28.90;3.13;;;;;;;22.03;68.33;100152.75;10496644;28;20056;-67
2023/07/06 01:29:33;;;;;;;43.83;5.38;;;;;;;21.77;67.92;100133.44;10475322;28;20063;-67
2023/07/06 01:52:05;;;;;;;15.32;2.42;;;;;;;21.98;70.04;100172.44;10456861;28;20132;-67
2023/07/06 01:57:43;;;;;;;32.45;3.58;;;;;;;22.02;71.22;100175.47;10478784;28;20441;-68
2023/07/06 02:03:05;;;;;;;13.93;2.28;;;;;;;22.06;70.47;100176.63;10495959;28;20493;-67
2023/07/06 02:13:45;;;;;;;11.90;2.88;;;;;;;22.38;71.01;100170.63;10502228;28;20044;-67
2023/07/06 02:24:24;;;;;;;13.00;2.85;;;;;;;22.77;67.54;100169.47;10462537;28;20044;-68
2023/07/06 02:46:19;;;;;;;11.13;2.40;;;;;;;26.56;59.65;100166.53;10461146;28;20041;-68
2023/07/06 02:52:00;;;;;;;10.68;2.17;;;;;;;28.36;52.96;100172.31;10461858;28;20519;-68
2023/07/06 02:57:19;;;;;;;15.27;2.13;;;;;;;29.96;45.71;100171.72;10461494;28;20056;-69
2023/07/06 03:02:30;;;;;;;7.43;1.80;;;;;;;30.95;42.08;100177.72;10461186;28;20106;-69
2023/07/06 03:07:34;;;;;;;7.78;1.80;;;;;;;31.68;38.97;100173.00;10460245;28;20059;-69
2023/07/06 03:18:31;;;;;;;6.63;1.52;;;;;;;32.59;36.78;100150.50;10459960;28;20098;-68
2023/07/06 03:23:32;;;;;;;12.70;2.20;;;;;;;33.03;35.01;100151.41;10459569;28;20067;-68
2023/07/06 03:28:34;;;;;;;9.38;1.70;;;;;;;33.23;34.65;100143.63;10460357;28;20057;-68
2023/07/06 03:34:13;;;;;;;24.70;2.88;;;;;;;33.95;35.20;100161.31;10460041;28;20408;-68
2023/07/06 03:50:47;;;;;;;4.90;1.60;;;;;;;35.35;29.81;100165.72;10470116;28;20056;-68
2023/07/06 03:56:28;;;;;;;8.30;1.60;;;;;;;36.04;29.00;100155.13;10470314;28;20144;-68
2023/07/06 04:01:32;;;;;;;4.97;1.60;;;;;;;35.87;29.37;100164.44;10468380;28;20064;-68
2023/07/06 04:12:32;;;;;;;11.25;2.45;;;;;;;36.93;28.18;100146.88;10475451;28;20049;-68
2023/07/06 04:17:55;;;;;;;;;;;;;;;38.10;28.30;100144.97;10481331;28;20554;-68
2023/07/06 04:28:34;;;;;;;11.35;1.95;;;;;;;36.63;28.12;100142.81;10451778;28;20084;-70
2023/07/06 04:39:35;;;;;;;11.65;2.20;;;;;;;36.19;26.93;100074.25;10486157;28;20512;-68
2023/07/06 04:44:54;;;;;;;9.73;1.98;;;;;;;35.98;27.14;100126.06;10476903;28;20040;-69
2023/07/06 04:50:32;;;;;;;9.70;2.50;;;;;;;36.08;27.67;100140.28;10463709;28;20516;-68
2023/07/06 05:01:48;;;;;;;11.52;2.45;;;;;;;35.76;27.19;100130.88;10413337;28;20041;-70
2023/07/06 05:18:23;;;;;;;11.35;2.85;;;;;;;34.14;29.26;100119.63;10414010;28;20081;-70
2023/07/06 05:29:22;;;;;;;18.83;3.70;;;;;;;32.84;31.04;100060.88;10413498;28;20065;-68
2023/07/06 05:46:15;;;;;;;11.65;2.97;;;;;;;33.02;30.49;100122.25;10412196;28;20064;-67
2023/07/06 05:51:34;;;;;;;11.32;3.20;;;;;;;33.11;30.82;100116.75;10412826;28;20045;-68
2023/07/06 06:14:43;;;;;;;10.07;2.88;;;;;;;33.90;30.74;100112.72;10412357;28;20081;-68
2023/07/06 06:20:02;;;;;;;10.80;3.00;;;;;;;33.91;29.92;100099.75;10412832;28;20046;-67
2023/07/06 06:25:21;;;;;;;7.82;3.33;;;;;;;33.46;29.59;100053.38;10412100;28;20042;-67
2023/07/06 06:36:37;;;;;;;17.38;3.20;;;;;;;34.10;29.24;100105.69;10413162;28;20049;-67
2023/07/06 06:52:53;;;;;;;12.43;3.33;;;;;;;34.37;29.94;100109.09;10412028;28;20110;-67
2023/07/06 06:58:31;;;;;;;11.82;3.28;;;;;;;34.47;29.80;100106.78;10416500;28;20037;-67
2023/07/06 07:03:34;;;;;;;16.88;3.60;;;;;;;34.37;29.87;100109.91;10419235;28;20068;-67
2023/07/06 07:14:31;;;;;;;9.68;2.72;;;;;;;34.44;30.21;100098.38;10419325;28;20045;-68
2023/07/06 07:19:51;;;;;;;10.10;3.10;;;;;;;34.38;30.33;100095.00;10419230;28;20045;-66
2023/07/06 07:35:31;;;;;;;8.30;2.75;;;;;;;34.65;31.25;100082.69;10418586;28;20048;-67
2023/07/06 07:40:31;;;;;;;12.90;3.43;;;;;;;34.56;30.74;100031.47;10418514;28;20497;-66
2023/07/06 07:50:56;;;;;;;11.55;3.72;;;;;;;34.96;30.37;100087.75;10417185;28;20123;-67
2023/07/06 07:55:57;;;;;;;6.47;3.15;;;;;;;34.46;30.15;99999.53;10417869;28;20045;-67
2023/07/06 08:06:18;;;;;;;16.48;3.90;;;;;;;35.24;29.61;100070.66;10416929;28;20477;-67
2023/07/06 09:32:16;;;;;;;11.75;3.55;;;;;;;36.47;26.52;100019.00;10414466;28;20476;-68
2023/07/06 09:43:38;;;;;;;8.05;3.20;;;;;;;36.64;27.14;99995.00;10414007;28;20048;-67
2023/07/06 09:49:17;;;;;;;7.20;2.97;;;;;;;36.52;26.98;99993.88;10412370;28;20041;-67
2023/07/06 10:00:00;;;;;;;;;;;;;;;36.87;24.71;99984.97;10477516;28;20033;-68
2023/07/06 10:05:36;;;;;;;14.05;3.88;;;;;;;36.64;27.21;99978.38;10459228;28;19916;-66
2023/07/06 10:16:45;;;;;;;12.30;3.75;;;;;;;36.86;26.56;99961.22;10453827;28;20045;-67
2023/07/06 10:22:03;;;;;;;7.72;3.65;;;;;;;37.07;26.57;99974.06;10450285;28;20045;-68
2023/07/06 10:27:11;;;;;;;16.67;3.70;;;;;;;36.97;26.65;99954.00;10449802;28;20061;-67
2023/07/06 10:32:17;;;;;;;6.63;3.20;;;;;;;36.76;25.92;99929.31;10455826;28;20037;-70
2023/07/06 10:37:18;;;;;;;13.88;3.67;;;;;;;36.88;25.95;99956.13;10460820;28;20041;-68
2023/07/06 10:42:47;;;;;;;14.07;3.57;;;;;;;36.67;26.00;99908.50;10460759;28;20048;-68
2023/07/06 10:53:21;;;;;;;22.00;3.80;;;;;;;36.71;26.51;99890.84;10457467;28;20128;-68
2023/07/06 10:58:48;;;;;;;8.95;3.38;;;;;;;37.17;26.30;99943.84;10472931;28;20040;-68
2023/07/06 11:03:49;;;;;;;16.58;3.47;;;;;;;36.99;26.01;99945.34;10503072;28;20040;-67
2023/07/06 11:09:13;;;;;;;7.53;3.33;;;;;;;37.04;25.33;99927.66;10502237;28;20507;-66
2023/07/06 11:20:02;;;;;;;14.10;3.88;;;;;;;36.91;26.73;99890.94;10502677;28;20563;-67
2023/07/06 11:25:03;;;;;;;9.75;3.90;;;;;;;37.19;26.37;99918.59;10501459;28;20498;-67
2023/07/06 11:36:00;;;;;;;8.48;3.53;;;;;;;36.85;25.94;99908.97;10500513;28;20127;-68
2023/07/06 11:41:11;;;;;;;8.43;3.80;;;;;;;36.86;25.84;99899.53;10500208;28;20044;-68
2023/07/06 11:46:42;;;;;;;16.65;4.15;;;;;;;36.55;26.87;99901.06;10500049;28;20446;-67
2023/07/06 11:57:44;;;;;;;32.25;4.38;;;;;;;36.67;26.28;99880.84;10499970;28;20040;-67
2023/07/06 12:08:37;;;;;;;12.73;3.65;;;;;;;36.59;26.71;99868.78;10422401;28;20029;-67
2023/07/06 12:13:42;;;;;;;12.52;3.78;;;;;;;37.05;26.92;99883.03;10484683;28;20054;-67
2023/07/06 12:18:46;;;;;;;9.20;3.70;;;;;;;36.89;26.22;99860.88;10496289;28;20399;-68
2023/07/06 12:24:06;;;;;;;12.90;3.63;;;;;;;36.73;26.51;99807.44;10463816;28;20037;-67
2023/07/06 12:29:29;;;;;;;19.65;3.70;;;;;;;36.83;26.24;99822.72;10466139;28;20056;-66
2023/07/06 12:39:51;;;;;;;;;;;;;;;37.43;25.98;99874.06;10470371;28;20045;-67
2023/07/06 12:44:52;;;;;;;10.53;3.30;;;;;;;36.71;26.93;99863.19;10456722;28;19913;-67
2023/07/06 12:49:59;;;;;;;7.05;3.30;;;;;;;36.51;26.39;99840.13;10456430;28;20037;-67
2023/07/06 12:55:02;;;;;;;14.23;3.70;;;;;;;36.47;26.63;99843.94;10456441;28;20036;-67
2023/07/06 13:00:23;;;;;;;25.85;4.07;;;;;;;36.18;26.87;99859.72;10457032;28;20076;-68
2023/07/06 13:05:31;;;;;;;14.63;3.58;;;;;;;36.34;26.37;99855.03;10456324;28;20041;-67
2023/07/06 13:10:31;;;;;;;7.70;3.95;;;;;;;36.50;26.61;99848.75;10453168;28;20116;-68
2023/07/06 13:15:45;;;;;;;12.82;3.10;;;;;;;36.63;26.78;99839.25;10454852;28;20151;-67
2023/07/06 13:20:50;;;;;;;8.27;3.60;;;;;;;36.54;25.91;99817.28;10455841;28;20045;-67
2023/07/06 13:31:14;;;;;;;20.77;4.00;;;;;;;36.82;26.12;99838.53;10456027;28;20052;-67
2023/07/06 13:41:38;;;;;;;7.88;3.38;;;;;;;36.36;26.15;99820.69;10454357;28;20127;-68
2023/07/06 13:46:44;;;;;;;11.35;3.10;;;;;;;36.20;26.16;99773.66;10454262;28;20135;-67
2023/07/06 13:51:45;;;;;;;10.40;3.03;;;;;;;36.56;25.92;99814.97;10454763;28;20056;-68
2023/07/06 13:56:47;;;;;;;10.23;3.22;;;;;;;36.55;26.58;99820.84;10454537;28;20427;-67
2023/07/06 14:01:48;;;;;;;25.58;3.75;;;;;;;36.34;26.47;99813.53;10455065;28;20447;-66
2023/07/06 14:06:49;;;;;;;17.63;3.97;;;;;;;36.06;26.56;99798.97;10452076;28;20059;-67
2023/07/06 14:11:50;;;;;;;19.48;3.30;;;;;;;36.11;26.03;99795.94;10454386;28;20171;-67
2023/07/06 14:22:10;;;;;;;23.42;4.20;;;;;;;35.97;26.82;99812.09;10454194;28;20397;-67
2023/07/06 14:27:12;;;;;;;11.57;3.27;;;;;;;36.03;26.37;99819.00;10454324;28;20052;-67
2023/07/06 14:32:16;;;;;;;23.23;4.47;;;;;;;36.05;26.74;99816.72;10454012;28;20439;-66
2023/07/06 14:37:16;;;;;;;13.18;3.75;;;;;;;35.30;26.30;99698.44;10453987;28;20048;-67
2023/07/06 14:42:17;;;;;;;17.60;4.07;;;;;;;35.77;26.82;99791.78;10453980;28;20037;-66
2023/07/06 14:47:18;;;;;;;18.40;3.42;;;;;;;35.78;26.99;99815.50;10454606;28;20503;-67
2023/07/06 14:52:19;;;;;;;12.32;3.42;;;;;;;35.56;27.20;99803.81;10453565;28;20438;-67
2023/07/06 14:57:21;;;;;;;10.25;3.33;;;;;;;35.31;27.16;99782.91;10453592;28;20068;-68
2023/07/06 15:02:26;;;;;;;13.77;3.58;;;;;;;34.81;27.00;99717.84;10452983;28;20051;-67
2023/07/06 15:07:26;;;;;;;18.00;3.90;;;;;;;35.26;27.02;99817.06;10453386;28;20114;-68
2023/07/06 15:12:27;;;;;;;44.22;5.15;;;;;;;35.10;27.29;99810.66;10452792;28;20045;-66
2023/07/06 15:17:28;;;;;;;25.17;4.53;;;;;;;35.13;27.06;99821.00;10454772;28;20051;-67
2023/07/06 15:22:29;;;;;;;21.92;4.13;;;;;;;35.01;27.54;99835.59;10459277;28;20090;-66
2023/07/06 15:32:48;;;;;;;12.27;3.25;;;;;;;34.75;27.42;99825.66;10477735;28;20050;-65
2023/07/06 15:37:49;;;;;;;15.35;3.50;;;;;;;34.65;27.89;99826.13;10459508;28;20504;-66
2023/07/06 15:42:50;;;;;;;26.75;4.07;;;;;;;34.06;27.65;99763.78;10464257;28;20041;-66
2023/07/06 15:47:51;;;;;;;14.63;3.35;;;;;;;34.31;27.98;99841.03;10500454;28;20119;-67
2023/07/06 15:52:51;;;;;;;8.77;3.10;;;;;;;33.77;28.56;99783.16;10500176;28;20048;-66
2023/07/06 15:57:52;;;;;;;33.47;5.00;;;;;;;33.94;28.34;99848.34;10500391;28;20032;-67
2023/07/06 16:02:53;;;;;;;36.00;4.68;;;;;;;33.75;28.49;99851.56;10500286;28;20442;-66
2023/07/06 16:07:55;;;;;;;24.55;3.70;;;;;;;33.58;28.72;99858.00;10461139;28;20041;-66
2023/07/06 16:12:56;;;;;;;15.40;3.67;;;;;;;33.09;29.06;99806.13;10466670;28;20044;-66
2023/07/06 16:17:57;;;;;;;13.55;3.25;;;;;;;33.22;28.94;99855.75;10457856;28;20566;-67
2023/07/06 16:22:58;;;;;;;10.32;3.10;;;;;;;33.02;29.37;99847.09;10458213;28;20037;-66
2023/07/06 16:28:17;;;;;;;10.70;3.42;;;;;;;32.93;29.55;99871.84;10457087;28;20458;-67
2023/07/06 16:33:36;;;;;;;12.95;3.75;;;;;;;32.41;29.69;99819.72;10457673;28;20048;-67
2023/07/06 16:38:37;;;;;;;20.42;3.38;;;;;;;32.46;29.77;99866.34;10457461;28;20049;-66
2023/07/06 16:43:38;;;;;;;12.15;3.45;;;;;;;32.05;29.49;99826.41;10456813;28;20090;-66
2023/07/06 16:48:39;;;;;;;31.20;4.70;;;;;;;32.11;30.15;99868.28;10458358;28;20037;-67
2023/07/06 16:53:43;;;;;;;56.28;7.45;;;;;;;31.98;30.04;99875.56;10456688;28;20413;-66
2023/07/06 16:58:43;;;;;;;24.05;3.97;;;;;;;31.73;30.96;99882.59;10456207;28;20041;-66
2023/07/06 17:03:45;;;;;;;6.80;3.17;;;;;;;31.53;31.17;99874.94;10456484;28;20504;-70
2023/07/06 17:08:46;;;;;;;11.95;3.03;;;;;;;31.36;31.39;99882.03;10470053;28;20047;-71
2023/07/06 17:13:47;;;;;;;10.35;3.60;;;;;;;31.09;32.33;99874.00;10464028;28;20408;-71
2023/07/06 17:18:49;;;;;;;14.13;3.58;;;;;;;30.91;32.34;99904.09;10456120;28;20524;-71
2023/07/06 17:23:49;;;;;;;8.67;2.90;;;;;;;30.31;33.05;99830.47;10463714;28;20037;-71
2023/07/06 17:28:50;;;;;;;9.20;5.05;;;;;;;30.11;33.27;99847.38;10467448;28;20057;-72
2023/07/06 17:33:51;;;;;;;315.02;147.60;;;;;;;30.35;33.40;99921.09;10472356;28;20044;-70
2023/07/06 17:38:52;;;;;;;305.10;149.07;;;;;;;29.70;33.86;99840.09;10489644;28;20047;-71
2023/07/06 17:43:52;;;;;;;304.80;157.68;;;;;;;30.06;34.04;99915.97;10474116;28;20047;-72
2023/07/06 17:48:53;;;;;;;515.97;328.23;;;;;;;29.89;34.24;99906.50;10470200;28;20045;-70
2023/07/06 17:59:50;;;;;;;231.30;89.38;;;;;;;29.68;35.38;99924.47;10460345;28;20501;-72
2023/07/06 18:04:51;;;;;;;78.20;25.95;;;;;;;29.46;35.20;99919.66;10473341;28;20040;-71
2023/07/06 18:09:52;;;;;;;70.70;16.17;;;;;;;29.37;35.51;99916.81;10474286;28;20044;-72
2023/07/06 18:25:58;;;;;;;30.23;6.30;;;;;;;28.87;36.96;99902.97;10456401;28;20492;-72
2023/07/06 18:30:59;;;;;;;15.38;5.28;;;;;;;28.92;36.80;99932.13;10454406;28;20056;-69
2023/07/06 18:36:02;;;;;;;11.27;5.00;;;;;;;28.81;37.17;99935.06;10464435;28;20044;-69
2023/07/06 18:41:03;;;;;;;9.40;4.95;;;;;;;28.59;37.05;99908.34;10454796;28;20045;-71
2023/07/06 18:46:23;;;;;;;17.30;5.75;;;;;;;28.67;37.69;99926.81;10460676;28;20075;-70
2023/07/06 18:51:42;;;;;;;12.70;5.13;;;;;;;28.19;37.61;99872.34;10456272;28;20055;-70
2023/07/06 18:57:02;;;;;;;15.48;4.43;;;;;;;28.51;38.57;99933.66;10461997;28;20047;-70
2023/07/06 19:02:04;;;;;;;8.27;4.15;;;;;;;28.27;37.99;99911.84;10472301;28;20043;-70
2023/07/06 19:07:05;;;;;;;12.53;3.87;;;;;;;28.28;38.44;99931.78;10474966;28;20397;-69
2023/07/06 19:12:07;;;;;;;11.18;3.78;;;;;;;28.14;38.80;99924.31;10484318;28;20048;-70
2023/07/06 19:17:08;;;;;;;11.10;3.90;;;;;;;27.77;38.98;99876.75;10478332;28;20074;-70
2023/07/06 19:22:27;;;;;;;15.55;4.75;;;;;;;28.00;39.29;99928.91;10469384;28;20038;-68
2023/07/06 19:27:28;;;;;;;7.97;3.90;;;;;;;27.93;39.21;99931.16;10465239;28;20063;-71
2023/07/06 19:32:29;;;;;;;8.70;3.58;;;;;;;27.82;39.79;99932.41;10465375;28;20047;-70
2023/07/06 19:37:30;;;;;;;13.27;4.10;;;;;;;27.68;40.12;99938.56;10461362;28;20044;-69
2023/07/06 19:42:30;;;;;;;10.60;4.45;;;;;;;27.62;40.21;99934.25;10483622;28;20037;-70
2023/07/06 19:47:31;;;;;;;13.02;4.57;;;;;;;27.51;40.62;99932.75;10459460;28;20044;-69
2023/07/06 19:52:32;;;;;;;16.33;4.60;;;;;;;27.28;40.86;99918.00;10470255;28;20416;-70
2023/07/06 19:57:33;;;;;;;11.20;4.40;;;;;;;27.30;40.99;99937.63;10458628;28;20040;-70
2023/07/06 20:02:34;;;;;;;9.18;3.95;;;;;;;27.24;41.44;99931.41;10462538;28;20044;-71
2023/07/06 20:07:35;;;;;;;13.15;3.90;;;;;;;26.39;41.89;99804.63;10466652;28;20049;-70
2023/07/06 20:12:36;;;;;;;11.00;3.95;;;;;;;26.89;41.66;99904.47;10459097;28;20060;-70
2023/07/06 20:17:38;;;;;;;7.72;4.03;;;;;;;26.75;42.27;99891.53;10469301;28;20131;-70
2023/07/06 20:22:38;;;;;;;10.25;3.92;;;;;;;26.42;42.28;99855.00;10458082;28;20086;-71
2023/07/06 20:27:39;;;;;;;12.35;4.68;;;;;;;26.17;42.67;99836.94;10457073;28;20492;-73
2023/07/06 20:32:40;;;;;;;16.40;4.32;;;;;;;26.14;43.11;99851.13;10468287;28;20099;-68
2023/07/06 20:37:41;;;;;;;12.82;4.00;;;;;;;26.47;43.48;99914.03;10472539;28;20041;-71
2023/07/06 20:42:42;;;;;;;7.68;4.05;;;;;;;26.37;43.76;99904.84;10469967;28;20087;-71
2023/07/06 20:47:42;;;;;;;14.27;3.80;;;;;;;26.19;43.98;99895.44;10457356;28;20044;-71
2023/07/06 20:52:43;;;;;;;16.02;4.00;;;;;;;26.13;43.86;99896.59;10458807;28;20044;-70
2023/07/06 20:57:44;;;;;;;18.80;4.10;;;;;;;26.05;44.33;99896.34;10465971;28;20045;-71
2023/07/06 21:02:45;;;;;;;11.68;4.13;;;;;;;25.90;44.78;99889.91;10472042;28;20127;-72
2023/07/06 21:07:52;;;;;;;18.42;3.50;;;;;;;25.86;46.10;99902.47;10467317;28;20063;-71
2023/07/06 21:12:53;;;;;;;11.27;3.85;;;;;;;25.69;45.76;99888.34;10455398;28;20135;-71
2023/07/06 21:17:54;;;;;;;10.50;4.10;;;;;;;25.68;45.75;99897.63;10455280;28;20044;-71
2023/07/06 21:22:55;;;;;;;7.70;3.92;;;;;;;25.57;46.25;99896.84;10468307;28;20049;-72
2023/07/06 21:27:56;;;;;;;5.57;3.40;;;;;;;25.22;46.46;99846.16;10464301;28;20059;-71
2023/07/06 21:32:56;;;;;;;13.65;4.10;;;;;;;25.39;47.08;99884.66;10465926;28;20048;-71
2023/07/06 21:37:57;;;;;;;7.65;4.22;;;;;;;24.96;47.23;99839.94;10454922;28;20045;-71
2023/07/06 21:42:58;;;;;;;11.95;3.83;;;;;;;25.15;47.49;99884.47;10455856;28;20041;-71
2023/07/06 21:47:59;;;;;;;13.80;3.88;;;;;;;24.72;48.06;99831.56;10465519;28;20071;-72
2023/07/06 21:52:59;;;;;;;15.57;4.20;;;;;;;24.94;48.89;99891.00;10454273;28;20045;-72
2023/07/06 21:58:00;;;;;;;8.98;3.42;;;;;;;24.82;49.01;99896.72;10458128;28;20052;-71
2023/07/06 22:03:01;;;;;;;12.00;4.03;;;;;;;24.76;49.58;99886.94;10461223;28;20124;-73
2023/07/06 22:08:02;;;;;;;10.63;3.58;;;;;;;24.34;49.87;99831.00;10453359;28;20045;-71
2023/07/06 22:13:03;;;;;;;11.98;3.50;;;;;;;24.60;50.05;99888.88;10464716;28;20087;-72
2023/07/06 22:18:04;;;;;;;9.00;3.80;;;;;;;24.37;50.75;99857.59;10454333;28;20064;-71
2023/07/06 22:23:05;;;;;;;9.00;3.42;;;;;;;24.13;50.96;99825.56;10458432;28;20049;-71
2023/07/06 22:28:05;;;;;;;13.20;4.20;;;;;;;24.41;51.67;99875.00;10464092;28;20510;-71
2023/07/06 22:33:07;;;;;;;12.40;4.13;;;;;;;24.28;51.84;99862.75;10462748;28;20045;-71
2023/07/06 22:38:08;;;;;;;10.07;3.88;;;;;;;24.11;52.11;99852.19;10488920;28;20051;-71
2023/07/06 22:43:09;;;;;;;9.52;4.22;;;;;;;24.11;52.70;99886.63;10461817;28;20041;-71
2023/07/06 22:48:09;;;;;;;7.25;3.80;;;;;;;24.02;53.20;99870.06;10472888;28;20136;-71
2023/07/06 22:53:11;;;;;;;11.95;4.45;;;;;;;23.96;53.85;99873.03;10460872;28;20045;-71
2023/07/06 22:58:12;;;;;;;19.80;4.35;;;;;;;23.52;54.22;99811.06;10466492;28;20386;-71
2023/07/06 23:03:14;;;;;;;7.95;4.13;;;;;;;23.73;54.55;99858.88;10466898;28;20045;-72
2023/07/06 23:08:15;;;;;;;7.32;4.10;;;;;;;23.73;54.72;99858.88;10465651;28;20041;-71
2023/07/06 23:13:16;;;;;;;10.45;4.40;;;;;;;23.85;54.79;99873.00;10467031;28;20427;-72
2023/07/06 23:18:18;;;;;;;12.23;4.47;;;;;;;23.78;55.07;99875.16;10463081;28;20089;-72
2023/07/06 23:23:19;;;;;;;8.30;4.18;;;;;;;23.71;55.60;99873.78;10469223;28;20412;-71
2023/07/06 23:28:22;;;;;;;11.38;4.22;;;;;;;23.60;55.97;99871.00;10460722;28;20060;-71
2023/07/06 23:33:23;;;;;;;7.72;4.22;;;;;;;23.44;56.37;99842.19;10471019;28;20063;-72
2023/07/06 23:38:24;;;;;;;11.57;4.57;;;;;;;23.31;57.43;99848.13;10459285;28;20056;-71
2023/07/06 23:43:24;;;;;;;15.35;4.30;;;;;;;23.32;57.65;99868.69;10459833;28;20045;-71
2023/07/06 23:48:26;;;;;;;14.98;4.22;;;;;;;23.22;57.96;99867.56;10470049;28;20048;-71
2023/07/06 23:53:27;;;;;;;16.35;4.40;;;;;;;23.13;57.80;99858.31;10459887;28;20403;-71
2023/07/06 23:58:28;;;;;;;11.18;4.25;;;;;;;23.11;57.60;99876.72;10466293;28;20143;-71
